sensor_id;sensor_type;location;lat;lon;timestamp;P1;durP1;ratioP1;P2;durP2;ratioP2
74375;SDS011;62812;55.188;61.302;2022-08-21T00:01:16;15.73;;;10.85;;
74375;SDS011;62812;55.188;61.302;2022-08-21T00:03:46;20.48;;;10.30;;
74375;SDS011;62812;55.188;61.302;2022-08-21T00:06:13;18.90;;;10.85;;
74375;SDS011;62812;55.188;61.302;2022-08-21T00:08:41;17.50;;;11.23;;
74375;SDS011;62812;55.188;61.302;2022-08-21T00:11:10;19.35;;;12.27;;
74375;SDS011;62812;55.188;61.302;2022-08-21T00:13:37;20.40;;;11.30;;
74375;SDS011;62812;55.188;61.302;2022-08-21T00:16:04;18.45;;;11.80;;
74375;SDS011;62812;55.188;61.302;2022-08-21T00:18:30;17.83;;;10.95;;
74375;SDS011;62812;55.188;61.302;2022-08-21T00:20:57;18.63;;;11.63;;
74375;SDS011;62812;55.188;61.302;2022-08-21T00:23:24;16.75;;;10.75;;
74375;SDS011;62812;55.188;61.302;2022-08-21T00:25:54;20.45;;;11.10;;
74375;SDS011;62812;55.188;61.302;2022-08-21T00:28:21;20.30;;;11.50;;
74375;SDS011;62812;55.188;61.302;2022-08-21T00:30:47;17.80;;;10.45;;
74375;SDS011;62812;55.188;61.302;2022-08-21T00:33:14;15.27;;;10.00;;
74375;SDS011;62812;55.188;61.302;2022-08-21T00:35:41;17.50;;;10.75;;
74375;SDS011;62812;55.188;61.302;2022-08-21T00:38:10;15.60;;;10.02;;
74375;SDS011;62812;55.188;61.302;2022-08-21T00:40:39;16.45;;;11.23;;
74375;SDS011;62812;55.188;61.302;2022-08-21T00:43:09;17.77;;;11.02;;
74375;SDS011;62812;55.188;61.302;2022-08-21T00:45:37;20.00;;;11.50;;
74375;SDS011;62812;55.188;61.302;2022-08-21T00:48:06;21.60;;;11.75;;
74375;SDS011;62812;55.188;61.302;2022-08-21T00:50:34;17.63;;;11.00;;
74375;SDS011;62812;55.188;61.302;2022-08-21T00:53:06;16.88;;;11.07;;
74375;SDS011;62812;55.188;61.302;2022-08-21T00:55:33;16.73;;;10.15;;
74375;SDS011;62812;55.188;61.302;2022-08-21T00:58:03;20.05;;;10.75;;
74375;SDS011;62812;55.188;61.302;2022-08-21T01:00:35;18.38;;;10.00;;
74375;SDS011;62812;55.188;61.302;2022-08-21T01:03:05;15.70;;;10.00;;
74375;SDS011;62812;55.188;61.302;2022-08-21T01:05:34;16.40;;;10.13;;
74375;SDS011;62812;55.188;61.302;2022-08-21T01:08:00;17.00;;;10.40;;
74375;SDS011;62812;55.188;61.302;2022-08-21T01:10:27;21.13;;;10.70;;
74375;SDS011;62812;55.188;61.302;2022-08-21T01:12:55;16.63;;;9.63;;
74375;SDS011;62812;55.188;61.302;2022-08-21T01:15:24;18.08;;;9.93;;
74375;SDS011;62812;55.188;61.302;2022-08-21T01:17:56;21.65;;;10.85;;
74375;SDS011;62812;55.188;61.302;2022-08-21T01:20:27;18.35;;;10.13;;
74375;SDS011;62812;55.188;61.302;2022-08-21T01:22:55;18.10;;;10.23;;
74375;SDS011;62812;55.188;61.302;2022-08-21T01:25:24;14.77;;;9.68;;
74375;SDS011;62812;55.188;61.302;2022-08-21T01:27:51;16.25;;;9.85;;
74375;SDS011;62812;55.188;61.302;2022-08-21T01:30:20;17.73;;;9.55;;
74375;SDS011;62812;55.188;61.302;2022-08-21T01:32:49;13.82;;;9.05;;
74375;SDS011;62812;55.188;61.302;2022-08-21T01:35:17;16.95;;;9.98;;
74375;SDS011;62812;55.188;61.302;2022-08-21T01:37:45;16.83;;;9.20;;
74375;SDS011;62812;55.188;61.302;2022-08-21T01:40:14;16.58;;;10.00;;
74375;SDS011;62812;55.188;61.302;2022-08-21T01:42:42;17.95;;;9.85;;
74375;SDS011;62812;55.188;61.302;2022-08-21T01:45:12;14.07;;;9.50;;
74375;SDS011;62812;55.188;61.302;2022-08-21T01:47:39;18.70;;;10.77;;
74375;SDS011;62812;55.188;61.302;2022-08-21T01:50:07;20.20;;;10.48;;
74375;SDS011;62812;55.188;61.302;2022-08-21T01:52:36;13.80;;;9.57;;
74375;SDS011;62812;55.188;61.302;2022-08-21T01:55:03;15.38;;;10.40;;
74375;SDS011;62812;55.188;61.302;2022-08-21T01:57:32;15.73;;;9.30;;
74375;SDS011;62812;55.188;61.302;2022-08-21T02:02:26;15.88;;;9.70;;
74375;SDS011;62812;55.188;61.302;2022-08-21T02:04:53;19.02;;;9.70;;
74375;SDS011;62812;55.188;61.302;2022-08-21T02:07:20;16.27;;;10.52;;
74375;SDS011;62812;55.188;61.302;2022-08-21T02:09:47;18.08;;;10.00;;
74375;SDS011;62812;55.188;61.302;2022-08-21T02:12:14;13.25;;;9.13;;
74375;SDS011;62812;55.188;61.302;2022-08-21T02:14:41;16.67;;;9.93;;
74375;SDS011;62812;55.188;61.302;2022-08-21T02:17:08;15.02;;;9.23;;
74375;SDS011;62812;55.188;61.302;2022-08-21T02:19:35;16.50;;;8.95;;
74375;SDS011;62812;55.188;61.302;2022-08-21T02:22:03;14.45;;;9.13;;
74375;SDS011;62812;55.188;61.302;2022-08-21T02:24:29;15.27;;;9.00;;
74375;SDS011;62812;55.188;61.302;2022-08-21T02:26:56;15.35;;;10.40;;
74375;SDS011;62812;55.188;61.302;2022-08-21T02:29:22;15.43;;;8.38;;
74375;SDS011;62812;55.188;61.302;2022-08-21T02:31:50;14.13;;;8.82;;
74375;SDS011;62812;55.188;61.302;2022-08-21T02:34:17;15.88;;;8.60;;
74375;SDS011;62812;55.188;61.302;2022-08-21T02:36:43;13.75;;;8.80;;
74375;SDS011;62812;55.188;61.302;2022-08-21T02:39:10;15.82;;;9.27;;
74375;SDS011;62812;55.188;61.302;2022-08-21T02:41:37;13.10;;;8.43;;
74375;SDS011;62812;55.188;61.302;2022-08-21T02:44:03;17.70;;;8.80;;
74375;SDS011;62812;55.188;61.302;2022-08-21T02:46:30;13.63;;;8.82;;
74375;SDS011;62812;55.188;61.302;2022-08-21T02:51:27;14.50;;;8.18;;
74375;SDS011;62812;55.188;61.302;2022-08-21T02:53:53;12.40;;;8.18;;
74375;SDS011;62812;55.188;61.302;2022-08-21T02:56:21;11.77;;;8.00;;
74375;SDS011;62812;55.188;61.302;2022-08-21T02:58:48;16.23;;;8.35;;
74375;SDS011;62812;55.188;61.302;2022-08-21T03:01:17;13.20;;;7.93;;
74375;SDS011;62812;55.188;61.302;2022-08-21T03:03:45;13.27;;;7.82;;
74375;SDS011;62812;55.188;61.302;2022-08-21T03:06:17;15.57;;;7.75;;
74375;SDS011;62812;55.188;61.302;2022-08-21T03:08:45;14.60;;;7.53;;
74375;SDS011;62812;55.188;61.302;2022-08-21T03:11:13;13.07;;;7.38;;
74375;SDS011;62812;55.188;61.302;2022-08-21T03:13:40;13.40;;;7.85;;
74375;SDS011;62812;55.188;61.302;2022-08-21T03:16:07;13.30;;;7.38;;
74375;SDS011;62812;55.188;61.302;2022-08-21T03:18:34;14.55;;;7.10;;
74375;SDS011;62812;55.188;61.302;2022-08-21T03:21:01;12.50;;;7.22;;
74375;SDS011;62812;55.188;61.302;2022-08-21T03:23:29;13.63;;;7.43;;
74375;SDS011;62812;55.188;61.302;2022-08-21T03:25:56;13.88;;;7.60;;
74375;SDS011;62812;55.188;61.302;2022-08-21T03:28:22;12.95;;;7.07;;
74375;SDS011;62812;55.188;61.302;2022-08-21T03:30:50;12.88;;;6.90;;
74375;SDS011;62812;55.188;61.302;2022-08-21T03:33:17;11.70;;;6.35;;
74375;SDS011;62812;55.188;61.302;2022-08-21T03:35:46;14.82;;;6.75;;
74375;SDS011;62812;55.188;61.302;2022-08-21T03:38:14;9.95;;;6.25;;
74375;SDS011;62812;55.188;61.302;2022-08-21T03:40:42;16.23;;;6.18;;
74375;SDS011;62812;55.188;61.302;2022-08-21T03:43:09;11.20;;;6.05;;
74375;SDS011;62812;55.188;61.302;2022-08-21T03:45:37;10.77;;;5.78;;
74375;SDS011;62812;55.188;61.302;2022-08-21T03:48:04;11.85;;;5.80;;
74375;SDS011;62812;55.188;61.302;2022-08-21T03:50:33;13.63;;;5.93;;
74375;SDS011;62812;55.188;61.302;2022-08-21T03:53:02;10.27;;;5.88;;
74375;SDS011;62812;55.188;61.302;2022-08-21T03:55:29;9.07;;;4.97;;
74375;SDS011;62812;55.188;61.302;2022-08-21T03:57:57;10.15;;;4.68;;
74375;SDS011;62812;55.188;61.302;2022-08-21T04:00:24;11.68;;;5.85;;
74375;SDS011;62812;55.188;61.302;2022-08-21T04:02:51;15.27;;;4.97;;
74375;SDS011;62812;55.188;61.302;2022-08-21T04:05:19;9.63;;;4.90;;
74375;SDS011;62812;55.188;61.302;2022-08-21T04:07:55;9.63;;;4.90;;
74375;SDS011;62812;55.188;61.302;2022-08-21T04:10:22;9.13;;;4.95;;
74375;SDS011;62812;55.188;61.302;2022-08-21T04:12:50;11.90;;;4.97;;
74375;SDS011;62812;55.188;61.302;2022-08-21T04:15:18;9.80;;;5.03;;
74375;SDS011;62812;55.188;61.302;2022-08-21T04:17:45;10.80;;;4.95;;
74375;SDS011;62812;55.188;61.302;2022-08-21T04:20:12;13.68;;;4.93;;
74375;SDS011;62812;55.188;61.302;2022-08-21T04:22:38;8.25;;;4.50;;
74375;SDS011;62812;55.188;61.302;2022-08-21T04:25:05;8.00;;;4.07;;
74375;SDS011;62812;55.188;61.302;2022-08-21T04:27:33;8.73;;;3.60;;
74375;SDS011;62812;55.188;61.302;2022-08-21T04:29:59;7.13;;;3.45;;
74375;SDS011;62812;55.188;61.302;2022-08-21T04:32:28;9.27;;;3.78;;
74375;SDS011;62812;55.188;61.302;2022-08-21T04:34:57;9.45;;;3.50;;
74375;SDS011;62812;55.188;61.302;2022-08-21T04:37:25;7.03;;;3.50;;
74375;SDS011;62812;55.188;61.302;2022-08-21T04:39:51;7.65;;;3.70;;
74375;SDS011;62812;55.188;61.302;2022-08-21T04:42:18;8.32;;;3.40;;
74375;SDS011;62812;55.188;61.302;2022-08-21T04:44:44;7.40;;;3.22;;
74375;SDS011;62812;55.188;61.302;2022-08-21T04:47:14;7.47;;;3.38;;
74375;SDS011;62812;55.188;61.302;2022-08-21T04:49:43;9.10;;;3.55;;
74375;SDS011;62812;55.188;61.302;2022-08-21T04:52:11;6.45;;;3.30;;
74375;SDS011;62812;55.188;61.302;2022-08-21T04:54:39;5.88;;;2.50;;
74375;SDS011;62812;55.188;61.302;2022-08-21T04:57:07;6.75;;;3.53;;
74375;SDS011;62812;55.188;61.302;2022-08-21T04:59:37;6.60;;;3.15;;
74375;SDS011;62812;55.188;61.302;2022-08-21T05:02:07;9.45;;;3.25;;
74375;SDS011;62812;55.188;61.302;2022-08-21T05:04:36;9.60;;;3.30;;
74375;SDS011;62812;55.188;61.302;2022-08-21T05:07:10;6.47;;;2.92;;
74375;SDS011;62812;55.188;61.302;2022-08-21T05:09:38;6.15;;;2.83;;
74375;SDS011;62812;55.188;61.302;2022-08-21T05:12:05;6.13;;;2.95;;
74375;SDS011;62812;55.188;61.302;2022-08-21T05:14:32;5.13;;;2.45;;
74375;SDS011;62812;55.188;61.302;2022-08-21T05:16:58;5.68;;;2.38;;
74375;SDS011;62812;55.188;61.302;2022-08-21T05:19:25;8.07;;;2.80;;
74375;SDS011;62812;55.188;61.302;2022-08-21T05:21:52;5.97;;;2.63;;
74375;SDS011;62812;55.188;61.302;2022-08-21T05:24:20;7.70;;;2.75;;
74375;SDS011;62812;55.188;61.302;2022-08-21T05:26:46;6.43;;;2.63;;
74375;SDS011;62812;55.188;61.302;2022-08-21T05:29:13;5.53;;;2.40;;
74375;SDS011;62812;55.188;61.302;2022-08-21T05:31:40;4.95;;;2.33;;
74375;SDS011;62812;55.188;61.302;2022-08-21T05:34:07;7.25;;;2.45;;
74375;SDS011;62812;55.188;61.302;2022-08-21T05:36:34;6.35;;;2.00;;
74375;SDS011;62812;55.188;61.302;2022-08-21T05:39:01;5.40;;;2.08;;
74375;SDS011;62812;55.188;61.302;2022-08-21T05:41:30;5.68;;;1.85;;
74375;SDS011;62812;55.188;61.302;2022-08-21T05:43:56;7.38;;;2.50;;
74375;SDS011;62812;55.188;61.302;2022-08-21T05:46:23;6.80;;;2.53;;
74375;SDS011;62812;55.188;61.302;2022-08-21T05:48:50;4.70;;;2.30;;
74375;SDS011;62812;55.188;61.302;2022-08-21T05:51:16;5.60;;;2.38;;
74375;SDS011;62812;55.188;61.302;2022-08-21T05:53:44;4.80;;;2.20;;
74375;SDS011;62812;55.188;61.302;2022-08-21T05:56:11;5.85;;;2.58;;
74375;SDS011;62812;55.188;61.302;2022-08-21T05:58:39;8.18;;;2.60;;
74375;SDS011;62812;55.188;61.302;2022-08-21T06:01:06;5.03;;;2.38;;
74375;SDS011;62812;55.188;61.302;2022-08-21T06:03:35;5.32;;;2.10;;
74375;SDS011;62812;55.188;61.302;2022-08-21T06:06:06;5.40;;;2.33;;
74375;SDS011;62812;55.188;61.302;2022-08-21T06:08:33;4.75;;;2.03;;
74375;SDS011;62812;55.188;61.302;2022-08-21T06:11:00;5.45;;;2.00;;
74375;SDS011;62812;55.188;61.302;2022-08-21T06:13:27;4.40;;;1.55;;
74375;SDS011;62812;55.188;61.302;2022-08-21T06:16:01;4.13;;;1.70;;
74375;SDS011;62812;55.188;61.302;2022-08-21T06:18:29;3.70;;;1.50;;
74375;SDS011;62812;55.188;61.302;2022-08-21T06:20:56;5.72;;;1.83;;
74375;SDS011;62812;55.188;61.302;2022-08-21T06:23:22;5.45;;;1.80;;
74375;SDS011;62812;55.188;61.302;2022-08-21T06:25:49;5.82;;;1.73;;
74375;SDS011;62812;55.188;61.302;2022-08-21T06:28:15;5.43;;;1.60;;
74375;SDS011;62812;55.188;61.302;2022-08-21T06:30:42;7.25;;;1.90;;
74375;SDS011;62812;55.188;61.302;2022-08-21T06:33:10;5.45;;;1.65;;
74375;SDS011;62812;55.188;61.302;2022-08-21T06:35:37;4.10;;;1.48;;
74375;SDS011;62812;55.188;61.302;2022-08-21T06:38:03;5.60;;;1.60;;
74375;SDS011;62812;55.188;61.302;2022-08-21T06:40:30;3.97;;;1.38;;
74375;SDS011;62812;55.188;61.302;2022-08-21T06:42:57;4.05;;;1.70;;
74375;SDS011;62812;55.188;61.302;2022-08-21T06:45:30;5.55;;;1.98;;
74375;SDS011;62812;55.188;61.302;2022-08-21T06:47:57;8.15;;;1.63;;
74375;SDS011;62812;55.188;61.302;2022-08-21T06:50:25;6.57;;;1.65;;
74375;SDS011;62812;55.188;61.302;2022-08-21T06:52:57;4.20;;;1.63;;
74375;SDS011;62812;55.188;61.302;2022-08-21T06:55:24;7.25;;;1.70;;
74375;SDS011;62812;55.188;61.302;2022-08-21T06:57:51;4.97;;;1.73;;
74375;SDS011;62812;55.188;61.302;2022-08-21T07:00:18;4.10;;;1.45;;
74375;SDS011;62812;55.188;61.302;2022-08-21T07:02:45;4.85;;;1.77;;
74375;SDS011;62812;55.188;61.302;2022-08-21T07:05:11;5.80;;;1.73;;
74375;SDS011;62812;55.188;61.302;2022-08-21T07:07:39;4.78;;;1.30;;
74375;SDS011;62812;55.188;61.302;2022-08-21T07:10:06;5.35;;;1.75;;
74375;SDS011;62812;55.188;61.302;2022-08-21T07:12:33;3.90;;;1.48;;
74375;SDS011;62812;55.188;61.302;2022-08-21T07:15:00;3.60;;;1.25;;
74375;SDS011;62812;55.188;61.302;2022-08-21T07:17:26;4.47;;;1.55;;
74375;SDS011;62812;55.188;61.302;2022-08-21T07:19:52;5.00;;;1.42;;
74375;SDS011;62812;55.188;61.302;2022-08-21T07:22:19;6.30;;;1.63;;
74375;SDS011;62812;55.188;61.302;2022-08-21T07:24:48;4.88;;;1.42;;
74375;SDS011;62812;55.188;61.302;2022-08-21T07:27:14;4.72;;;1.77;;
74375;SDS011;62812;55.188;61.302;2022-08-21T07:29:42;4.07;;;1.60;;
74375;SDS011;62812;55.188;61.302;2022-08-21T07:32:09;10.07;;;2.00;;
74375;SDS011;62812;55.188;61.302;2022-08-21T07:34:35;4.88;;;1.70;;
74375;SDS011;62812;55.188;61.302;2022-08-21T07:37:02;5.72;;;1.63;;
74375;SDS011;62812;55.188;61.302;2022-08-21T07:39:29;4.95;;;1.73;;
74375;SDS011;62812;55.188;61.302;2022-08-21T07:41:57;8.57;;;1.60;;
74375;SDS011;62812;55.188;61.302;2022-08-21T07:44:23;5.40;;;1.55;;
74375;SDS011;62812;55.188;61.302;2022-08-21T07:46:50;4.75;;;1.45;;
74375;SDS011;62812;55.188;61.302;2022-08-21T07:49:16;5.07;;;1.83;;
74375;SDS011;62812;55.188;61.302;2022-08-21T07:51:43;6.05;;;2.10;;
74375;SDS011;62812;55.188;61.302;2022-08-21T07:54:10;4.63;;;1.70;;
74375;SDS011;62812;55.188;61.302;2022-08-21T07:56:37;4.07;;;1.52;;
74375;SDS011;62812;55.188;61.302;2022-08-21T07:59:05;4.82;;;1.50;;
74375;SDS011;62812;55.188;61.302;2022-08-21T08:01:31;5.88;;;1.60;;
74375;SDS011;62812;55.188;61.302;2022-08-21T08:03:58;4.78;;;1.48;;
74375;SDS011;62812;55.188;61.302;2022-08-21T08:06:24;3.28;;;1.10;;
74375;SDS011;62812;55.188;61.302;2022-08-21T08:08:51;4.18;;;1.33;;
74375;SDS011;62812;55.188;61.302;2022-08-21T08:11:18;8.60;;;1.67;;
74375;SDS011;62812;55.188;61.302;2022-08-21T08:13:45;5.28;;;1.73;;
74375;SDS011;62812;55.188;61.302;2022-08-21T08:16:15;3.63;;;1.30;;
74375;SDS011;62812;55.188;61.302;2022-08-21T08:18:41;5.13;;;1.67;;
74375;SDS011;62812;55.188;61.302;2022-08-21T08:21:08;4.95;;;1.58;;
74375;SDS011;62812;55.188;61.302;2022-08-21T08:23:35;7.90;;;1.65;;
74375;SDS011;62812;55.188;61.302;2022-08-21T08:26:02;5.65;;;1.45;;
74375;SDS011;62812;55.188;61.302;2022-08-21T08:28:29;5.13;;;1.73;;
74375;SDS011;62812;55.188;61.302;2022-08-21T08:30:57;4.78;;;1.70;;
74375;SDS011;62812;55.188;61.302;2022-08-21T08:33:25;7.90;;;2.08;;
74375;SDS011;62812;55.188;61.302;2022-08-21T08:35:53;5.45;;;1.73;;
74375;SDS011;62812;55.188;61.302;2022-08-21T08:38:20;5.55;;;1.90;;
74375;SDS011;62812;55.188;61.302;2022-08-21T08:40:50;5.05;;;1.90;;
74375;SDS011;62812;55.188;61.302;2022-08-21T08:43:21;4.72;;;1.70;;
74375;SDS011;62812;55.188;61.302;2022-08-21T08:45:49;4.97;;;1.77;;
74375;SDS011;62812;55.188;61.302;2022-08-21T08:48:21;6.97;;;1.92;;
74375;SDS011;62812;55.188;61.302;2022-08-21T08:51:08;7.20;;;2.10;;
74375;SDS011;62812;55.188;61.302;2022-08-21T08:53:43;5.22;;;2.05;;
74375;SDS011;62812;55.188;61.302;2022-08-21T08:56:17;5.15;;;2.00;;
74375;SDS011;62812;55.188;61.302;2022-08-21T08:58:48;4.95;;;2.10;;
74375;SDS011;62812;55.188;61.302;2022-08-21T09:01:19;7.03;;;2.20;;
74375;SDS011;62812;55.188;61.302;2022-08-21T09:03:47;6.00;;;2.10;;
74375;SDS011;62812;55.188;61.302;2022-08-21T09:06:20;9.30;;;2.10;;
74375;SDS011;62812;55.188;61.302;2022-08-21T09:08:57;5.25;;;1.90;;
74375;SDS011;62812;55.188;61.302;2022-08-21T09:11:29;5.72;;;2.05;;
74375;SDS011;62812;55.188;61.302;2022-08-21T09:14:03;4.85;;;1.70;;
74375;SDS011;62812;55.188;61.302;2022-08-21T09:16:40;6.68;;;2.13;;
74375;SDS011;62812;55.188;61.302;2022-08-21T09:19:17;5.50;;;1.70;;
74375;SDS011;62812;55.188;61.302;2022-08-21T09:22:00;4.57;;;1.75;;
74375;SDS011;62812;55.188;61.302;2022-08-21T09:24:38;5.57;;;1.92;;
74375;SDS011;62812;55.188;61.302;2022-08-21T09:27:13;6.50;;;1.80;;
74375;SDS011;62812;55.188;61.302;2022-08-21T09:29:41;6.20;;;1.80;;
74375;SDS011;62812;55.188;61.302;2022-08-21T09:34:42;6.38;;;1.73;;
74375;SDS011;62812;55.188;61.302;2022-08-21T09:37:15;4.40;;;1.77;;
74375;SDS011;62812;55.188;61.302;2022-08-21T09:39:43;6.20;;;1.92;;
74375;SDS011;62812;55.188;61.302;2022-08-21T09:42:09;7.25;;;2.42;;
74375;SDS011;62812;55.188;61.302;2022-08-21T09:44:37;5.18;;;2.10;;
74375;SDS011;62812;55.188;61.302;2022-08-21T09:47:09;6.60;;;1.90;;
74375;SDS011;62812;55.188;61.302;2022-08-21T09:49:42;5.20;;;1.63;;
74375;SDS011;62812;55.188;61.302;2022-08-21T09:52:15;8.13;;;1.70;;
74375;SDS011;62812;55.188;61.302;2022-08-21T09:57:12;8.15;;;2.50;;
74375;SDS011;62812;55.188;61.302;2022-08-21T10:00:07;9.27;;;2.40;;
74375;SDS011;62812;55.188;61.302;2022-08-21T10:02:41;5.10;;;1.85;;
74375;SDS011;62812;55.188;61.302;2022-08-21T10:05:16;6.85;;;1.92;;
74375;SDS011;62812;55.188;61.302;2022-08-21T10:07:45;5.63;;;2.00;;
74375;SDS011;62812;55.188;61.302;2022-08-21T10:10:16;6.63;;;1.80;;
74375;SDS011;62812;55.188;61.302;2022-08-21T10:12:49;5.90;;;2.10;;
74375;SDS011;62812;55.188;61.302;2022-08-21T10:17:51;4.03;;;1.52;;
74375;SDS011;62812;55.188;61.302;2022-08-21T10:20:34;7.13;;;1.73;;
74375;SDS011;62812;55.188;61.302;2022-08-21T10:23:20;6.45;;;1.92;;
74375;SDS011;62812;55.188;61.302;2022-08-21T10:25:56;5.63;;;2.20;;
74375;SDS011;62812;55.188;61.302;2022-08-21T10:28:29;7.38;;;2.08;;
74375;SDS011;62812;55.188;61.302;2022-08-21T10:31:00;6.30;;;1.65;;
74375;SDS011;62812;55.188;61.302;2022-08-21T10:33:35;6.47;;;2.08;;
74375;SDS011;62812;55.188;61.302;2022-08-21T10:36:13;5.82;;;2.05;;
74375;SDS011;62812;55.188;61.302;2022-08-21T10:38:59;7.13;;;2.10;;
74375;SDS011;62812;55.188;61.302;2022-08-21T10:41:37;5.78;;;2.15;;
74375;SDS011;62812;55.188;61.302;2022-08-21T10:44:13;6.63;;;2.05;;
74375;SDS011;62812;55.188;61.302;2022-08-21T10:46:50;6.40;;;2.08;;
74375;SDS011;62812;55.188;61.302;2022-08-21T10:49:24;8.50;;;2.55;;
74375;SDS011;62812;55.188;61.302;2022-08-21T10:52:00;8.88;;;3.03;;
74375;SDS011;62812;55.188;61.302;2022-08-21T10:54:49;6.13;;;2.33;;
74375;SDS011;62812;55.188;61.302;2022-08-21T10:57:21;6.65;;;2.30;;
74375;SDS011;62812;55.188;61.302;2022-08-21T10:59:55;8.55;;;2.35;;
74375;SDS011;62812;55.188;61.302;2022-08-21T11:02:27;7.60;;;2.53;;
74375;SDS011;62812;55.188;61.302;2022-08-21T11:05:03;5.97;;;2.10;;
74375;SDS011;62812;55.188;61.302;2022-08-21T11:07:39;6.25;;;2.05;;
74375;SDS011;62812;55.188;61.302;2022-08-21T11:10:14;5.43;;;2.08;;
74375;SDS011;62812;55.188;61.302;2022-08-21T11:12:48;9.15;;;2.67;;
74375;SDS011;62812;55.188;61.302;2022-08-21T11:15:24;7.85;;;2.85;;
74375;SDS011;62812;55.188;61.302;2022-08-21T11:17:58;6.35;;;2.42;;
74375;SDS011;62812;55.188;61.302;2022-08-21T11:20:31;5.97;;;2.33;;
74375;SDS011;62812;55.188;61.302;2022-08-21T11:23:06;6.70;;;2.65;;
74375;SDS011;62812;55.188;61.302;2022-08-21T11:25:39;6.70;;;2.33;;
74375;SDS011;62812;55.188;61.302;2022-08-21T11:28:12;6.53;;;2.42;;
74375;SDS011;62812;55.188;61.302;2022-08-21T11:30:46;8.13;;;2.90;;
74375;SDS011;62812;55.188;61.302;2022-08-21T11:33:22;8.35;;;2.65;;
74375;SDS011;62812;55.188;61.302;2022-08-21T11:36:00;7.78;;;2.75;;
74375;SDS011;62812;55.188;61.302;2022-08-21T11:38:38;8.48;;;2.75;;
74375;SDS011;62812;55.188;61.302;2022-08-21T11:41:11;7.70;;;2.70;;
74375;SDS011;62812;55.188;61.302;2022-08-21T11:43:47;6.25;;;2.60;;
74375;SDS011;62812;55.188;61.302;2022-08-21T11:46:20;10.10;;;2.78;;
74375;SDS011;62812;55.188;61.302;2022-08-21T11:48:59;7.18;;;2.60;;
74375;SDS011;62812;55.188;61.302;2022-08-21T11:51:33;6.90;;;2.78;;
74375;SDS011;62812;55.188;61.302;2022-08-21T11:54:07;7.93;;;2.40;;
74375;SDS011;62812;55.188;61.302;2022-08-21T11:56:53;5.43;;;2.05;;
74375;SDS011;62812;55.188;61.302;2022-08-21T11:59:27;6.70;;;2.53;;
74375;SDS011;62812;55.188;61.302;2022-08-21T12:02:00;6.72;;;2.50;;
74375;SDS011;62812;55.188;61.302;2022-08-21T12:04:27;8.30;;;2.63;;
74375;SDS011;62812;55.188;61.302;2022-08-21T12:07:08;6.57;;;2.50;;
74375;SDS011;62812;55.188;61.302;2022-08-21T12:09:38;6.90;;;2.40;;
74375;SDS011;62812;55.188;61.302;2022-08-21T12:12:06;6.28;;;2.40;;
74375;SDS011;62812;55.188;61.302;2022-08-21T12:14:38;6.28;;;2.50;;
74375;SDS011;62812;55.188;61.302;2022-08-21T12:17:07;5.40;;;2.30;;
74375;SDS011;62812;55.188;61.302;2022-08-21T12:19:34;5.70;;;2.20;;
74375;SDS011;62812;55.188;61.302;2022-08-21T12:22:07;7.75;;;3.13;;
74375;SDS011;62812;55.188;61.302;2022-08-21T12:24:37;5.80;;;2.17;;
74375;SDS011;62812;55.188;61.302;2022-08-21T12:27:17;8.13;;;2.38;;
74375;SDS011;62812;55.188;61.302;2022-08-21T12:29:51;6.53;;;2.50;;
74375;SDS011;62812;55.188;61.302;2022-08-21T12:32:23;6.28;;;2.25;;
74375;SDS011;62812;55.188;61.302;2022-08-21T12:34:53;8.98;;;2.53;;
74375;SDS011;62812;55.188;61.302;2022-08-21T12:37:24;7.60;;;2.75;;
74375;SDS011;62812;55.188;61.302;2022-08-21T12:39:59;5.38;;;2.00;;
74375;SDS011;62812;55.188;61.302;2022-08-21T12:42:30;5.70;;;2.10;;
74375;SDS011;62812;55.188;61.302;2022-08-21T12:45:04;6.40;;;1.98;;
74375;SDS011;62812;55.188;61.302;2022-08-21T12:47:43;5.85;;;2.53;;
74375;SDS011;62812;55.188;61.302;2022-08-21T12:50:15;5.82;;;2.40;;
74375;SDS011;62812;55.188;61.302;2022-08-21T12:52:48;5.45;;;2.10;;
74375;SDS011;62812;55.188;61.302;2022-08-21T12:55:27;6.68;;;2.30;;
74375;SDS011;62812;55.188;61.302;2022-08-21T12:57:55;6.65;;;2.22;;
74375;SDS011;62812;55.188;61.302;2022-08-21T13:00:23;7.32;;;2.33;;
74375;SDS011;62812;55.188;61.302;2022-08-21T13:02:51;8.15;;;2.53;;
74375;SDS011;62812;55.188;61.302;2022-08-21T13:05:23;7.30;;;2.10;;
74375;SDS011;62812;55.188;61.302;2022-08-21T13:07:54;6.43;;;2.40;;
74375;SDS011;62812;55.188;61.302;2022-08-21T13:10:22;7.88;;;2.83;;
74375;SDS011;62812;55.188;61.302;2022-08-21T13:12:52;5.93;;;2.40;;
74375;SDS011;62812;55.188;61.302;2022-08-21T13:15:25;5.70;;;2.15;;
74375;SDS011;62812;55.188;61.302;2022-08-21T13:17:54;5.80;;;2.15;;
74375;SDS011;62812;55.188;61.302;2022-08-21T13:20:25;5.25;;;2.30;;
74375;SDS011;62812;55.188;61.302;2022-08-21T13:22:55;7.20;;;2.65;;
74375;SDS011;62812;55.188;61.302;2022-08-21T13:25:24;6.28;;;2.50;;
74375;SDS011;62812;55.188;61.302;2022-08-21T13:27:59;6.43;;;2.40;;
74375;SDS011;62812;55.188;61.302;2022-08-21T13:30:27;7.20;;;2.60;;
74375;SDS011;62812;55.188;61.302;2022-08-21T13:32:57;8.57;;;2.53;;
74375;SDS011;62812;55.188;61.302;2022-08-21T13:35:26;6.18;;;2.47;;
74375;SDS011;62812;55.188;61.302;2022-08-21T13:37:55;8.35;;;3.10;;
74375;SDS011;62812;55.188;61.302;2022-08-21T13:40:24;5.53;;;2.45;;
74375;SDS011;62812;55.188;61.302;2022-08-21T13:42:54;7.43;;;2.53;;
74375;SDS011;62812;55.188;61.302;2022-08-21T13:45:24;6.40;;;2.60;;
74375;SDS011;62812;55.188;61.302;2022-08-21T13:47:53;8.80;;;3.00;;
74375;SDS011;62812;55.188;61.302;2022-08-21T13:50:21;5.88;;;2.53;;
74375;SDS011;62812;55.188;61.302;2022-08-21T13:52:57;8.63;;;2.92;;
74375;SDS011;62812;55.188;61.302;2022-08-21T13:55:26;5.85;;;2.50;;
74375;SDS011;62812;55.188;61.302;2022-08-21T13:58:02;7.00;;;2.72;;
74375;SDS011;62812;55.188;61.302;2022-08-21T14:00:32;7.57;;;2.78;;
74375;SDS011;62812;55.188;61.302;2022-08-21T14:03:02;7.55;;;3.00;;
74375;SDS011;62812;55.188;61.302;2022-08-21T14:05:33;7.25;;;2.80;;
74375;SDS011;62812;55.188;61.302;2022-08-21T14:08:03;8.38;;;3.20;;
74375;SDS011;62812;55.188;61.302;2022-08-21T14:10:34;8.38;;;3.38;;
74375;SDS011;62812;55.188;61.302;2022-08-21T14:13:04;7.15;;;2.67;;
74375;SDS011;62812;55.188;61.302;2022-08-21T14:15:34;9.00;;;2.88;;
74375;SDS011;62812;55.188;61.302;2022-08-21T14:18:07;10.65;;;2.67;;
74375;SDS011;62812;55.188;61.302;2022-08-21T14:20:38;6.07;;;2.92;;
74375;SDS011;62812;55.188;61.302;2022-08-21T14:23:05;9.70;;;3.20;;
74375;SDS011;62812;55.188;61.302;2022-08-21T14:25:36;8.60;;;3.63;;
74375;SDS011;62812;55.188;61.302;2022-08-21T14:28:10;9.48;;;3.83;;
74375;SDS011;62812;55.188;61.302;2022-08-21T14:30:44;9.82;;;3.60;;
74375;SDS011;62812;55.188;61.302;2022-08-21T14:33:26;8.18;;;3.47;;
74375;SDS011;62812;55.188;61.302;2022-08-21T14:35:56;9.05;;;3.20;;
74375;SDS011;62812;55.188;61.302;2022-08-21T14:38:24;9.23;;;3.45;;
74375;SDS011;62812;55.188;61.302;2022-08-21T14:40:53;9.68;;;3.53;;
74375;SDS011;62812;55.188;61.302;2022-08-21T14:43:24;10.18;;;3.33;;
74375;SDS011;62812;55.188;61.302;2022-08-21T14:45:54;8.15;;;3.97;;
74375;SDS011;62812;55.188;61.302;2022-08-21T14:48:21;7.53;;;3.78;;
74375;SDS011;62812;55.188;61.302;2022-08-21T14:50:48;10.27;;;4.30;;
74375;SDS011;62812;55.188;61.302;2022-08-21T14:53:15;9.05;;;4.05;;
74375;SDS011;62812;55.188;61.302;2022-08-21T14:55:42;10.45;;;4.28;;